createdAt,value
2022-12-18T00:01:19.552Z,5.47
2022-12-18T00:03:47.043Z,4.47
2022-12-18T00:06:14.836Z,4.95
2022-12-18T00:08:42.656Z,4.95
2022-12-18T00:11:12.398Z,6.85
2022-12-18T00:13:39.503Z,5.13
2022-12-18T00:16:09.995Z,6.50
2022-12-18T00:18:37.032Z,5.97
2022-12-18T00:21:06.966Z,6.63
2022-12-18T00:23:34.949Z,6.95
2022-12-18T00:26:03.489Z,3.88
2022-12-18T00:28:30.125Z,5.03
2022-12-18T00:31:06.546Z,5.20
2022-12-18T00:33:33.719Z,5.63
2022-12-18T00:36:11.850Z,4.80
2022-12-18T00:38:39.265Z,3.50
2022-12-18T00:41:08.642Z,5.43
2022-12-18T00:43:35.815Z,5.65
2022-12-18T00:46:02.990Z,6.60
2022-12-18T00:48:29.653Z,6.25
2022-12-18T00:50:56.235Z,7.43
2022-12-18T00:53:23.043Z,4.40
2022-12-18T00:55:49.605Z,7.07
2022-12-18T00:58:17.869Z,8.30
2022-12-18T01:00:44.843Z,6.65
2022-12-18T01:03:14.692Z,5.63
2022-12-18T01:05:42.654Z,7.15
2022-12-18T01:08:09.339Z,7.78
2022-12-18T01:10:35.845Z,6.88
2022-12-18T01:13:02.397Z,8.13
2022-12-18T01:15:28.915Z,7.45
2022-12-18T01:17:55.485Z,7.93
2022-12-18T01:20:22.087Z,7.35
2022-12-18T01:22:50.474Z,8.38
2022-12-18T01:25:19.021Z,5.55
2022-12-18T01:27:47.124Z,7.95
2022-12-18T01:30:15.702Z,7.65
2022-12-18T01:32:43.537Z,8.35
2022-12-18T01:35:11.746Z,5.15
2022-12-18T01:37:40.021Z,8.20
2022-12-18T01:40:09.038Z,6.38
2022-12-18T01:42:36.987Z,6.07
2022-12-18T01:47:50.330Z,7.13
2022-12-18T01:50:24.093Z,6.32
2022-12-18T01:52:56.633Z,7.05
2022-12-18T01:55:26.189Z,6.57
2022-12-18T01:57:55.869Z,6.20
2022-12-18T02:00:23.951Z,5.32
2022-12-18T02:02:50.811Z,6.90
2022-12-18T02:05:30.241Z,6.20
2022-12-18T02:08:36.481Z,7.50
2022-12-18T02:20:09.813Z,9.18
2022-12-18T02:27:51.980Z,6.97
2022-12-18T02:30:19.740Z,6.03
2022-12-18T02:32:51.223Z,6.35
2022-12-18T02:35:23.141Z,9.95
2022-12-18T02:37:50.766Z,6.20
2022-12-18T02:40:19.669Z,9.77
2022-12-18T02:42:46.260Z,7.18
2022-12-18T02:45:13.377Z,6.97
2022-12-18T02:47:43.369Z,7.57
2022-12-18T02:50:42.932Z,7.05
2022-12-18T03:06:30.010Z,14.32
2022-12-18T03:09:02.104Z,9.07
2022-12-18T03:11:54.411Z,8.85
2022-12-18T03:14:24.748Z,9.25
2022-12-18T03:16:56.185Z,10.68
2022-12-18T03:19:26.674Z,10.60
2022-12-18T03:21:56.964Z,9.98
2022-12-18T03:24:25.459Z,8.30
2022-12-18T03:26:55.930Z,8.38
2022-12-18T03:29:32.237Z,9.43
2022-12-18T03:32:05.900Z,9.25
2022-12-18T03:34:35.653Z,10.07
2022-12-18T03:37:04.153Z,9.27
2022-12-18T03:39:30.807Z,11.32
2022-12-18T03:45:20.164Z,6.38
2022-12-18T03:48:01.603Z,8.18
2022-12-18T03:50:41.868Z,7.90
2022-12-18T03:53:20.637Z,5.57
2022-12-18T03:55:49.004Z,9.52
2022-12-18T03:58:20.412Z,9.10
2022-12-18T04:00:51.630Z,6.88
2022-12-18T04:03:25.318Z,7.25
2022-12-18T04:05:55.162Z,7.10
2022-12-18T04:08:22.768Z,7.88
2022-12-18T04:10:49.432Z,8.55
2022-12-18T04:13:25.357Z,7.30
2022-12-18T04:15:52.287Z,8.30
2022-12-18T04:18:18.877Z,8.32
2022-12-18T04:20:45.424Z,8.38
2022-12-18T04:23:12.220Z,10.55
2022-12-18T04:25:38.793Z,9.85
2022-12-18T04:28:05.482Z,8.63
2022-12-18T04:30:32.068Z,8.10
2022-12-18T04:32:58.731Z,8.48
2022-12-18T04:35:25.333Z,9.93
2022-12-18T04:37:51.879Z,8.77
2022-12-18T04:40:18.493Z,8.88
2022-12-18T04:42:45.126Z,8.30
2022-12-18T04:45:11.752Z,9.63
2022-12-18T04:47:38.354Z,8.15
2022-12-18T04:50:05.475Z,9.88
2022-12-18T04:52:32.036Z,9.13
2022-12-18T04:54:58.690Z,11.00
2022-12-18T04:57:25.265Z,8.82
2022-12-18T04:59:51.797Z,8.98
2022-12-18T05:02:18.495Z,10.93
2022-12-18T05:04:45.076Z,8.55
2022-12-18T05:07:11.633Z,10.02
2022-12-18T05:09:38.247Z,9.95
2022-12-18T05:12:04.946Z,8.05
2022-12-18T05:14:31.533Z,7.05
2022-12-18T05:17:00.991Z,8.30
2022-12-18T05:19:27.954Z,6.60
2022-12-18T05:21:54.536Z,8.50
2022-12-18T05:24:21.110Z,9.18
2022-12-18T05:26:47.699Z,8.13
2022-12-18T05:29:14.297Z,5.30
2022-12-18T05:31:41.135Z,11.40
2022-12-18T05:34:09.598Z,7.28
2022-12-18T05:36:37.260Z,8.85
2022-12-18T05:39:04.225Z,9.00
2022-12-18T05:41:31.173Z,8.30
2022-12-18T05:43:57.811Z,7.60
2022-12-18T05:46:25.332Z,7.70
2022-12-18T05:48:52.232Z,7.28
2022-12-18T05:51:21.943Z,7.93
2022-12-18T05:53:49.360Z,8.70
2022-12-18T05:56:18.653Z,5.45
2022-12-18T05:58:45.559Z,8.55
2022-12-18T06:01:16.908Z,5.72
2022-12-18T06:03:44.289Z,5.40
2022-12-18T06:06:20.298Z,6.80
2022-12-18T06:08:47.633Z,7.78
2022-12-18T06:11:17.668Z,8.23
2022-12-18T06:13:44.229Z,7.47
2022-12-18T06:16:11.608Z,7.35
2022-12-18T06:18:38.243Z,8.27
2022-12-18T06:21:04.965Z,5.65
2022-12-18T06:23:31.546Z,5.97
2022-12-18T06:25:58.201Z,5.97
2022-12-18T06:28:24.831Z,7.47
2022-12-18T06:30:51.663Z,5.07
2022-12-18T06:33:18.623Z,6.28
2022-12-18T06:35:45.223Z,6.65
2022-12-18T06:38:11.821Z,6.72
2022-12-18T06:40:40.168Z,6.35
2022-12-18T06:43:07.296Z,5.57
2022-12-18T06:45:33.923Z,6.60
2022-12-18T06:48:00.529Z,5.60
2022-12-18T06:50:27.207Z,4.78
2022-12-18T06:52:53.778Z,5.60
2022-12-18T06:55:20.470Z,5.78
2022-12-18T06:57:47.022Z,6.45
2022-12-18T07:00:14.571Z,5.25
2022-12-18T07:02:41.630Z,4.63
2022-12-18T07:05:10.968Z,5.43
2022-12-18T07:07:38.119Z,6.53
2022-12-18T07:10:05.282Z,6.10
2022-12-18T07:12:31.893Z,7.80
2022-12-18T07:14:58.438Z,5.22
2022-12-18T07:17:25.017Z,4.97
2022-12-18T07:19:51.557Z,4.50
2022-12-18T07:22:18.094Z,6.75
2022-12-18T07:24:44.682Z,7.82
2022-12-18T07:27:11.220Z,6.00
2022-12-18T07:29:37.792Z,6.75
2022-12-18T07:32:05.018Z,6.82
2022-12-18T07:34:31.639Z,6.35
2022-12-18T07:36:58.225Z,7.75
2022-12-18T07:39:24.763Z,6.22
2022-12-18T07:42:11.253Z,5.40
2022-12-18T07:44:38.307Z,7.35
2022-12-18T07:47:09.153Z,6.70
2022-12-18T07:49:38.604Z,4.65
2022-12-18T07:52:05.347Z,5.00
2022-12-18T07:54:31.961Z,5.72
2022-12-18T07:56:58.504Z,6.10
2022-12-18T07:59:25.048Z,6.25
2022-12-18T08:01:51.717Z,6.15
2022-12-18T08:04:18.537Z,6.88
2022-12-18T08:06:48.003Z,7.60
2022-12-18T08:09:15.321Z,4.35
2022-12-18T08:11:41.937Z,5.35
2022-12-18T08:14:08.572Z,5.40
2022-12-18T08:16:35.164Z,6.05
2022-12-18T08:19:01.749Z,6.00
2022-12-18T08:21:30.487Z,6.00
2022-12-18T08:24:00.778Z,7.05
2022-12-18T08:26:30.479Z,6.50
2022-12-18T08:28:58.243Z,7.10
2022-12-18T08:31:25.872Z,5.68
2022-12-18T08:33:54.089Z,5.60
2022-12-18T08:36:22.802Z,6.85
2022-12-18T08:38:49.868Z,8.35
2022-12-18T08:41:17.910Z,6.28
2022-12-18T08:44:04.477Z,7.00
2022-12-18T08:46:40.586Z,5.97
2022-12-18T08:49:08.488Z,7.43
2022-12-18T08:51:35.527Z,7.68
2022-12-18T08:54:02.810Z,7.85
2022-12-18T08:56:31.263Z,7.40
2022-12-18T08:58:58.313Z,7.30
2022-12-18T09:01:25.433Z,7.30
2022-12-18T09:03:52.359Z,8.48
2022-12-18T09:06:20.881Z,6.60
2022-12-18T09:08:48.167Z,6.13
2022-12-18T09:11:21.568Z,6.60
2022-12-18T09:13:48.142Z,8.50
2022-12-18T09:16:14.835Z,5.97
2022-12-18T09:18:42.000Z,7.85
2022-12-18T09:21:13.401Z,7.70
2022-12-18T09:23:40.010Z,6.10
2022-12-18T09:26:06.951Z,8.68
2022-12-18T09:28:33.820Z,5.63
2022-12-18T09:31:04.254Z,6.60
2022-12-18T09:33:30.839Z,4.65
2022-12-18T09:35:57.957Z,6.80
2022-12-18T09:38:24.604Z,7.70
2022-12-18T09:40:54.748Z,6.70
2022-12-18T09:43:31.081Z,6.13
2022-12-18T09:46:04.262Z,7.60
2022-12-18T09:48:35.994Z,7.05
2022-12-18T09:51:14.519Z,5.20
2022-12-18T09:53:43.738Z,5.00
2022-12-18T09:56:17.581Z,5.82
2022-12-18T09:58:54.450Z,6.47
2022-12-18T10:01:24.198Z,6.30
2022-12-18T10:03:53.030Z,9.40
2022-12-18T10:09:29.584Z,8.07
2022-12-18T10:20:30.795Z,9.02
2022-12-18T10:25:52.840Z,6.25
2022-12-18T10:28:20.722Z,6.93
2022-12-18T10:30:47.850Z,5.38
2022-12-18T10:33:18.637Z,7.50
2022-12-18T10:35:46.712Z,7.82
2022-12-18T10:43:34.245Z,6.82
2022-12-18T10:46:12.822Z,7.60
2022-12-18T10:51:35.270Z,11.80
2022-12-18T10:54:06.237Z,10.00
2022-12-18T10:56:36.918Z,10.02
2022-12-18T10:59:07.387Z,6.88
2022-12-18T11:04:29.217Z,6.75
2022-12-18T11:07:09.231Z,8.27
2022-12-18T11:09:38.285Z,5.05
2022-12-18T11:12:16.112Z,6.10
2022-12-18T11:17:26.265Z,7.65
2022-12-18T11:19:55.589Z,6.57
2022-12-18T11:22:28.627Z,8.60
2022-12-18T11:27:34.684Z,10.18
2022-12-18T11:30:21.930Z,7.00
2022-12-18T11:32:52.048Z,6.60
2022-12-18T11:35:24.585Z,8.27
2022-12-18T11:37:59.164Z,9.73
2022-12-18T11:40:40.851Z,8.60
2022-12-18T11:45:52.919Z,6.68
2022-12-18T11:51:03.758Z,7.85
2022-12-18T11:53:31.389Z,10.32
2022-12-18T11:56:36.090Z,9.93
2022-12-18T12:13:23.056Z,7.97
2022-12-18T12:21:34.449Z,5.72
2022-12-18T12:35:19.071Z,8.68
2022-12-18T12:40:51.140Z,6.18
2022-12-18T12:46:03.769Z,6.28
2022-12-18T12:51:17.271Z,9.05
2022-12-18T12:53:44.295Z,6.82
2022-12-18T12:56:14.960Z,7.03
2022-12-18T13:04:11.497Z,7.30
2022-12-18T13:07:02.353Z,8.65
2022-12-18T13:12:40.599Z,9.65
2022-12-18T13:15:23.719Z,8.15
2022-12-18T13:17:50.716Z,8.80
2022-12-18T13:20:17.597Z,9.80
2022-12-18T13:25:39.009Z,8.18
2022-12-18T13:31:02.454Z,7.45
2022-12-18T13:36:29.362Z,7.35
2022-12-18T13:44:40.714Z,9.45
2022-12-18T13:50:28.560Z,7.97
2022-12-18T13:52:59.098Z,9.40
2022-12-18T13:55:26.556Z,8.25
2022-12-18T13:58:05.085Z,8.20
2022-12-18T14:00:32.928Z,7.75
2022-12-18T14:03:00.947Z,6.18
2022-12-18T14:08:11.212Z,8.40
2022-12-18T14:10:47.648Z,7.15
2022-12-18T14:13:29.196Z,9.68
2022-12-18T14:15:57.410Z,9.82
2022-12-18T14:18:37.605Z,7.47
2022-12-18T14:21:05.434Z,7.07
2022-12-18T14:26:29.928Z,10.40
2022-12-18T14:28:58.258Z,9.38
2022-12-18T14:31:28.228Z,10.27
2022-12-18T14:33:55.531Z,9.93
2022-12-18T14:36:27.302Z,9.55
2022-12-18T14:38:56.650Z,10.35
2022-12-18T14:41:24.426Z,9.68
2022-12-18T14:43:53.076Z,10.18
2022-12-18T14:52:17.585Z,10.88
2022-12-18T14:54:48.220Z,8.13
2022-12-18T14:57:24.750Z,10.07
2022-12-18T14:59:52.135Z,7.75
2022-12-18T15:07:54.730Z,8.60
2022-12-18T15:10:23.861Z,8.68
2022-12-18T15:23:28.610Z,5.85
2022-12-18T15:25:59.980Z,7.10
2022-12-18T15:33:47.008Z,6.93
2022-12-18T15:36:18.993Z,7.03
2022-12-18T15:38:56.177Z,5.45
2022-12-18T15:41:36.089Z,4.93
2022-12-18T15:44:04.294Z,7.45
2022-12-18T15:46:32.087Z,8.95
2022-12-18T15:49:02.561Z,5.03
2022-12-18T15:54:01.783Z,5.93
2022-12-18T15:56:48.274Z,6.07
2022-12-18T15:59:17.485Z,6.20
2022-12-18T16:01:47.152Z,3.92
2022-12-18T16:04:15.799Z,4.05
2022-12-18T16:07:12.807Z,5.28
2022-12-18T16:09:29.432Z,4.82
2022-12-18T16:11:56.068Z,4.25
2022-12-18T16:14:25.596Z,6.20
2022-12-18T16:16:55.690Z,3.92
2022-12-18T16:19:22.720Z,4.65
2022-12-18T16:21:52.167Z,3.70
2022-12-18T16:24:22.867Z,3.47
2022-12-18T16:26:52.416Z,4.78
2022-12-18T16:29:20.199Z,4.05
2022-12-18T16:31:46.952Z,4.28
2022-12-18T16:34:26.752Z,5.55
2022-12-18T16:39:37.477Z,3.90
2022-12-18T16:42:08.452Z,3.67
2022-12-18T16:44:36.100Z,4.90
2022-12-18T16:47:03.363Z,4.90
2022-12-18T16:49:30.544Z,4.38
2022-12-18T16:51:57.370Z,4.72
2022-12-18T16:54:24.073Z,3.80
2022-12-18T16:56:51.618Z,3.90
2022-12-18T16:59:18.294Z,5.22
2022-12-18T17:01:45.146Z,4.95
2022-12-18T17:04:11.945Z,4.78
2022-12-18T17:06:42.096Z,4.80
2022-12-18T17:09:12.647Z,4.78
2022-12-18T17:11:39.197Z,3.53
2022-12-18T17:14:10.427Z,4.22
2022-12-18T17:16:37.170Z,4.57
2022-12-18T17:19:05.439Z,4.38
2022-12-18T17:21:32.241Z,4.13
2022-12-18T17:24:01.428Z,4.63
2022-12-18T17:26:28.416Z,4.13
2022-12-18T17:28:58.828Z,4.68
2022-12-18T17:31:29.641Z,4.00
2022-12-18T17:33:57.506Z,4.30
2022-12-18T17:36:28.815Z,4.55
2022-12-18T17:38:57.877Z,4.97
2022-12-18T17:41:25.540Z,4.47
2022-12-18T17:46:32.310Z,4.75
2022-12-18T17:49:00.441Z,5.10
2022-12-18T17:51:27.772Z,4.45
2022-12-18T17:53:54.742Z,5.28
2022-12-18T17:56:23.211Z,4.72
2022-12-18T17:58:50.738Z,4.25
2022-12-18T18:01:21.042Z,6.28
2022-12-18T18:03:48.973Z,4.47
2022-12-18T18:06:18.823Z,5.07
2022-12-18T18:08:45.587Z,6.10
2022-12-18T18:11:35.927Z,3.90
2022-12-18T18:14:05.289Z,5.13
2022-12-18T18:19:12.949Z,3.00
2022-12-18T18:21:41.790Z,3.15
2022-12-18T18:24:10.298Z,2.80
2022-12-18T18:26:38.444Z,3.55
2022-12-18T18:29:06.808Z,2.35
2022-12-18T18:31:35.516Z,2.92
2022-12-18T18:34:07.516Z,2.88
2022-12-18T18:36:34.801Z,2.90
2022-12-18T18:39:02.376Z,2.83
2022-12-18T18:41:30.566Z,2.92
2022-12-18T18:43:58.870Z,2.78
2022-12-18T18:46:26.113Z,3.58
2022-12-18T18:48:53.245Z,3.65
2022-12-18T18:51:21.547Z,3.35
2022-12-18T18:53:50.282Z,3.70
2022-12-18T18:56:56.197Z,3.53
2022-12-18T18:59:06.076Z,2.03
2022-12-18T19:01:33.165Z,2.70
2022-12-18T19:04:04.338Z,2.70
2022-12-18T19:06:31.336Z,3.20
2022-12-18T19:09:01.810Z,2.40
2022-12-18T19:11:48.620Z,3.03
2022-12-18T19:14:15.869Z,2.80
2022-12-18T19:16:45.447Z,2.03
2022-12-18T19:19:13.078Z,2.92
2022-12-18T19:21:40.070Z,2.85
2022-12-18T19:24:07.016Z,2.38
2022-12-18T19:26:33.665Z,3.35
2022-12-18T19:29:02.201Z,2.53
2022-12-18T19:31:34.873Z,3.55
2022-12-18T19:34:02.798Z,2.70
2022-12-18T19:36:31.118Z,2.95
2022-12-18T19:39:00.394Z,3.08
2022-12-18T19:41:32.812Z,3.22
2022-12-18T19:44:00.414Z,3.22
2022-12-18T19:46:34.792Z,4.22
2022-12-18T19:49:01.497Z,2.72
2022-12-18T19:51:29.800Z,2.97
2022-12-18T19:53:59.281Z,3.80
2022-12-18T19:56:29.445Z,3.42
2022-12-18T19:58:56.459Z,2.58
2022-12-18T20:01:24.995Z,3.00
2022-12-18T20:03:53.710Z,2.80
2022-12-18T20:09:05.097Z,4.70
2022-12-18T20:11:33.292Z,5.13
2022-12-18T20:14:03.760Z,4.20
2022-12-18T20:16:31.019Z,5.07
2022-12-18T20:18:58.308Z,4.55
2022-12-18T20:21:25.362Z,4.65
2022-12-18T20:23:52.235Z,5.07
2022-12-18T20:26:19.416Z,4.47
2022-12-18T20:28:46.238Z,4.53
2022-12-18T20:31:13.682Z,4.38
2022-12-18T20:33:42.035Z,4.47
2022-12-18T20:36:14.210Z,4.93
2022-12-18T20:38:43.061Z,3.33
2022-12-18T20:41:16.411Z,4.40
2022-12-18T20:43:44.309Z,3.70
2022-12-18T20:46:13.675Z,3.45
2022-12-18T20:48:40.881Z,3.75
2022-12-18T20:51:10.609Z,3.55
2022-12-18T20:53:37.408Z,3.17
2022-12-18T20:56:08.803Z,2.85
2022-12-18T20:58:36.135Z,3.00
2022-12-18T21:03:42.730Z,1.98
2022-12-18T21:06:10.532Z,1.48
2022-12-18T21:08:37.867Z,2.42
2022-12-18T21:11:35.861Z,2.13
2022-12-18T21:14:03.905Z,1.77
2022-12-18T21:16:30.630Z,2.33
2022-12-18T21:18:57.568Z,2.10
2022-12-18T21:21:26.878Z,2.47
2022-12-18T21:23:53.973Z,1.42
2022-12-18T21:29:00.939Z,3.67
2022-12-18T21:31:30.387Z,2.10
2022-12-18T21:33:58.368Z,3.45
2022-12-18T21:36:28.848Z,3.28
2022-12-18T21:38:56.481Z,1.13
2022-12-18T21:41:44.003Z,1.20
2022-12-18T21:44:14.039Z,1.30
2022-12-18T21:46:44.661Z,1.30
2022-12-18T21:49:14.520Z,1.70
2022-12-18T21:51:41.501Z,2.13
2022-12-18T21:54:08.319Z,2.10
2022-12-18T21:59:22.932Z,2.40
2022-12-18T22:01:51.058Z,2.17
2022-12-18T22:04:18.703Z,2.42
2022-12-18T22:06:46.560Z,1.90
2022-12-18T22:09:16.043Z,2.20
2022-12-18T22:11:42.972Z,2.13
2022-12-18T22:14:10.009Z,2.45
2022-12-18T22:16:36.840Z,2.17
2022-12-18T22:19:04.888Z,2.28
2022-12-18T22:21:34.471Z,2.08
2022-12-18T22:24:05.088Z,1.98
2022-12-18T22:26:39.507Z,2.42
2022-12-18T22:29:26.734Z,1.77
2022-12-18T22:31:53.263Z,2.20
2022-12-18T22:34:22.985Z,2.03
2022-12-18T22:36:50.238Z,2.67
2022-12-18T22:39:22.478Z,1.52
2022-12-18T22:41:49.500Z,1.77
2022-12-18T22:44:17.544Z,1.63
2022-12-18T22:46:48.753Z,2.30
2022-12-18T22:49:24.681Z,2.03
2022-12-18T22:51:52.637Z,1.73
2022-12-18T22:54:19.490Z,1.80
2022-12-18T22:56:46.081Z,1.70
2022-12-18T22:59:18.905Z,1.58
2022-12-18T23:01:47.027Z,1.65
2022-12-18T23:04:15.102Z,1.50
2022-12-18T23:06:42.808Z,1.85
2022-12-18T23:09:15.968Z,2.03
2022-12-18T23:11:42.732Z,1.20
2022-12-18T23:14:09.298Z,1.80
2022-12-18T23:16:35.917Z,1.67
2022-12-18T23:19:03.610Z,2.35
2022-12-18T23:21:30.329Z,2.75
2022-12-18T23:23:57.335Z,3.28
2022-12-18T23:26:26.066Z,2.08
2022-12-18T23:28:53.553Z,3.00
2022-12-18T23:31:23.819Z,2.33
2022-12-18T23:36:19.368Z,2.72
2022-12-18T23:38:51.564Z,2.75
2022-12-18T23:41:20.010Z,3.08
2022-12-18T23:43:46.812Z,3.35
2022-12-18T23:46:25.490Z,3.17
2022-12-18T23:48:52.238Z,3.17
2022-12-18T23:51:20.688Z,2.47
2022-12-18T23:53:47.229Z,3.75
2022-12-18T23:56:14.682Z,2.85
2022-12-18T23:58:42.889Z,3.55
